Time;durP1;ratioP1;P1;durP2;ratioP2;P2;SDS_P1;SDS_P2;PMS_P1;PMS_P2;Temp;Humidity;BMP_temperature;BMP_pressure;BME280_temperature;BME280_humidity;BME280_pressure;Samples;Min_cycle;Max_cycle;Signal;HPM_P1;HPM_P2
2022/02/19 00:01:37;;;;;;;3.90;1.23;;;;;;;7.90;42.98;98458.72;10459240;28;20065;-70
2022/02/19 00:06:39;;;;;;;2.97;0.80;;;;;;;7.69;43.50;98474.44;10459581;28;20053;-70
2022/02/19 00:11:41;;;;;;;3.80;1.00;;;;;;;7.70;42.19;98478.78;10442660;28;20056;-71
2022/02/19 00:16:43;;;;;;;2.38;0.70;;;;;;;7.77;42.25;98489.81;10459893;28;20047;-69
2022/02/19 00:21:45;;;;;;;2.63;0.95;;;;;;;7.86;40.62;98510.31;10459257;28;20053;-69
2022/02/19 00:26:46;;;;;;;5.65;0.70;;;;;;;7.70;41.76;98515.41;10471097;22;20070;-72
2022/02/19 00:31:48;;;;;;;2.03;0.70;;;;;;;7.65;40.41;98519.97;10469608;28;20040;-71
2022/02/19 00:36:50;;;;;;;2.75;0.80;;;;;;;7.58;40.89;98516.78;10501857;28;20449;-71
2022/02/19 00:41:52;;;;;;;5.47;1.20;;;;;;;7.65;40.03;98537.41;10504146;28;20044;-71
2022/02/19 00:46:55;;;;;;;6.32;1.38;;;;;;;7.42;40.65;98526.19;10503613;28;20044;-71
2022/02/19 00:52:00;;;;;;;3.53;0.80;;;;;;;7.32;41.28;98551.03;10488442;28;20110;-71
2022/02/19 00:57:02;;;;;;;3.20;1.00;;;;;;;7.19;41.34;98550.69;10484249;28;20049;-71
2022/02/19 01:02:04;;;;;;;5.53;0.93;;;;;;;7.30;40.61;98561.56;10508139;28;20040;-71
2022/02/19 01:07:10;;;;;;;2.47;0.80;;;;;;;7.29;39.19;98564.22;10511250;28;20037;-71
2022/02/19 01:12:12;;;;;;;5.07;0.82;;;;;;;7.35;39.44;98577.06;10510494;28;20114;-71
2022/02/19 01:17:14;;;;;;;3.08;1.00;;;;;;;7.33;38.30;98555.34;10494238;28;20409;-71
2022/02/19 01:22:16;;;;;;;2.90;0.73;;;;;;;7.25;39.16;98575.72;10490317;28;20075;-71
2022/02/19 01:27:17;;;;;;;5.85;1.10;;;;;;;7.03;39.77;98578.34;10474690;28;20045;-71
2022/02/19 01:32:19;;;;;;;3.40;0.95;;;;;;;7.01;39.88;98591.50;10509261;28;20064;-71
2022/02/19 01:37:21;;;;;;;3.65;1.00;;;;;;;6.97;41.11;98612.59;10477412;28;20150;-72
2022/02/19 01:42:24;;;;;;;5.13;0.85;;;;;;;6.74;42.29;98608.25;10491123;28;20044;-72
2022/02/19 01:47:26;;;;;;;3.42;1.23;;;;;;;6.70;42.85;98622.34;10508214;28;20086;-71
2022/02/19 01:52:27;;;;;;;4.90;1.38;;;;;;;6.71;43.14;98608.38;10490542;28;20044;-71
2022/02/19 01:57:29;;;;;;;6.90;0.88;;;;;;;6.70;41.79;98624.97;10490961;28;20045;-72
2022/02/19 02:02:52;;;;;;;3.47;0.82;;;;;;;6.67;41.72;98620.69;10475845;28;20106;-71
2022/02/19 02:08:13;;;;;;;5.45;1.10;;;;;;;6.69;41.86;98612.81;10492064;28;20048;-71
2022/02/19 02:13:19;;;;;;;4.17;1.20;;;;;;;6.63;41.86;98649.59;10487759;28;20044;-70
2022/02/19 02:18:21;;;;;;;4.18;1.30;;;;;;;6.61;41.95;98635.75;10509312;28;20036;-73
2022/02/19 02:23:24;;;;;;;5.05;0.90;;;;;;;6.66;40.83;98636.44;10489002;28;20058;-73
2022/02/19 02:28:26;;;;;;;3.75;1.00;;;;;;;6.59;41.44;98641.03;10488511;28;20119;-72
2022/02/19 02:33:28;;;;;;;5.22;1.17;;;;;;;6.56;42.58;98656.81;10507970;28;20044;-72
2022/02/19 02:38:37;;;;;;;4.25;1.30;;;;;;;6.55;42.24;98640.31;10487627;28;20044;-72
2022/02/19 02:43:39;;;;;;;4.43;1.60;;;;;;;6.52;42.63;98647.41;10508202;28;20117;-72
2022/02/19 02:48:42;;;;;;;5.13;1.02;;;;;;;6.57;43.10;98668.97;10505807;28;20040;-72
2022/02/19 02:53:46;;;;;;;4.80;1.58;;;;;;;6.63;43.38;98665.25;10470623;28;20048;-72
2022/02/19 02:58:48;;;;;;;4.07;1.08;;;;;;;6.49;43.70;98674.47;10504620;28;20029;-72
2022/02/19 03:03:50;;;;;;;6.55;1.17;;;;;;;6.54;43.73;98690.78;10489824;28;20143;-72
2022/02/19 03:08:53;;;;;;;4.60;1.10;;;;;;;6.45;43.52;98709.41;10487275;28;20054;-72
2022/02/19 03:13:55;;;;;;;4.88;0.90;;;;;;;6.43;43.74;98671.25;10486341;28;20049;-72
2022/02/19 03:18:57;;;;;;;2.72;1.05;;;;;;;6.43;44.44;98754.75;10486686;28;20055;-72
2022/02/19 03:23:58;;;;;;;4.45;1.20;;;;;;;6.31;45.53;98714.28;10491426;28;20136;-72
2022/02/19 03:29:00;;;;;;;6.60;1.20;;;;;;;6.21;46.52;98720.75;10505471;28;20063;-72
2022/02/19 03:34:05;;;;;;;7.10;1.15;;;;;;;6.12;47.09;98742.78;10486965;28;20045;-72
2022/02/19 03:39:06;;;;;;;5.25;1.23;;;;;;;5.97;46.98;98770.22;10469483;28;20048;-72
2022/02/19 03:44:10;;;;;;;6.38;1.23;;;;;;;5.87;46.91;98778.38;10485596;28;20070;-73
2022/02/19 03:49:19;;;;;;;9.10;1.35;;;;;;;5.82;46.88;98778.53;10489199;28;20387;-72
2022/02/19 03:54:21;;;;;;;4.45;1.08;;;;;;;5.79;46.64;98786.44;10485691;28;20494;-72
2022/02/19 03:59:25;;;;;;;8.77;1.20;;;;;;;5.72;47.02;98783.19;10487324;28;20040;-72
2022/02/19 04:04:31;;;;;;;3.95;1.02;;;;;;;5.66;45.80;98772.94;10488080;28;20044;-72
2022/02/19 04:09:33;;;;;;;4.28;1.00;;;;;;;5.62;46.04;98791.34;10487665;28;20139;-72
2022/02/19 04:14:36;;;;;;;3.85;0.93;;;;;;;5.60;44.88;98782.72;10504130;28;20036;-72
2022/02/19 04:19:40;;;;;;;3.58;1.05;;;;;;;5.65;45.07;98773.84;10485789;28;20394;-73
2022/02/19 04:24:42;;;;;;;5.55;1.65;;;;;;;5.58;46.03;98811.47;10484798;28;20044;-73
2022/02/19 04:29:49;;;;;;;;;;;;;;;5.63;45.14;98793.06;10505042;28;20040;-73
2022/02/19 04:34:52;;;;;;;5.10;1.60;;;;;;;5.63;45.17;98806.09;10488505;28;19920;-72
2022/02/19 04:39:54;;;;;;;5.05;0.95;;;;;;;5.52;46.78;98814.22;10497925;28;20082;-72
2022/02/19 04:45:01;;;;;;;6.03;1.30;;;;;;;5.51;46.12;98818.59;10497099;28;20040;-72
2022/02/19 04:50:10;;;;;;;4.32;0.90;;;;;;;5.39;46.59;98831.13;10500574;28;20044;-71
2022/02/19 04:55:13;;;;;;;4.03;0.95;;;;;;;5.36;47.00;98829.50;10498408;28;20055;-71
2022/02/19 05:00:17;;;;;;;3.75;1.10;;;;;;;5.25;47.94;98826.34;10480635;28;20078;-71
2022/02/19 05:05:48;;;;;;;2.30;0.75;;;;;;;5.25;47.79;98848.03;10461875;28;20044;-71
2022/02/19 05:10:51;;;;;;;6.85;0.93;;;;;;;5.26;47.56;98856.69;10483360;28;20417;-72
2022/02/19 05:16:06;;;;;;;2.80;0.75;;;;;;;5.23;47.58;98862.88;10501410;28;20040;-72
2022/02/19 05:21:15;;;;;;;3.33;0.75;;;;;;;5.21;47.85;98862.03;10497723;28;20052;-72
2022/02/19 05:26:23;;;;;;;4.50;0.90;;;;;;;5.07;48.75;98890.25;10497185;28;20120;-72
2022/02/19 05:31:24;;;;;;;2.97;1.00;;;;;;;4.93;49.13;98894.97;10516270;28;20417;-73
2022/02/19 05:36:35;;;;;;;2.15;0.60;;;;;;;5.03;48.31;98904.25;10499567;28;20421;-73
2022/02/19 05:41:37;;;;;;;2.15;0.80;;;;;;;5.04;47.35;98926.78;10496795;28;20044;-73
2022/02/19 05:46:44;;;;;;;6.00;0.80;;;;;;;5.06;47.64;98944.09;10493642;28;20045;-73
2022/02/19 05:51:45;;;;;;;4.07;0.93;;;;;;;5.00;47.60;98954.69;10473642;28;20068;-72
2022/02/19 05:56:52;;;;;;;1.63;0.68;;;;;;;4.91;47.24;98972.28;10492946;28;20441;-72
2022/02/19 06:01:55;;;;;;;3.72;1.00;;;;;;;4.94;47.20;98996.50;10490801;28;20045;-72
2022/02/19 06:06:57;;;;;;;2.67;0.65;;;;;;;4.88;47.10;98978.44;10492119;28;20450;-73
2022/02/19 06:12:03;;;;;;;4.30;1.17;;;;;;;4.88;47.23;99003.63;10491732;28;20413;-73
2022/02/19 06:17:22;;;;;;;2.50;0.63;;;;;;;4.89;47.52;99020.94;10501766;28;20498;-73
2022/02/19 06:22:26;;;;;;;4.43;1.00;;;;;;;4.81;48.29;99028.94;10520214;28;20497;-73
2022/02/19 06:27:43;;;;;;;5.00;1.10;;;;;;;4.87;48.17;99034.03;10476716;22;20065;-71
2022/02/19 06:32:56;;;;;;;4.22;0.90;;;;;;;4.96;47.17;99059.81;10413249;28;20049;-71
2022/02/19 06:37:59;;;;;;;4.30;1.00;;;;;;;5.11;46.80;99073.34;10428839;28;20120;-71
2022/02/19 06:43:01;;;;;;;4.45;0.65;;;;;;;5.09;46.06;99083.81;10412655;28;20060;-70
2022/02/19 06:48:04;;;;;;;2.33;0.50;;;;;;;5.41;44.51;99098.63;10415848;28;20502;-70
2022/02/19 06:53:07;;;;;;;8.27;0.63;;;;;;;5.94;44.33;99074.66;10414671;28;20136;-71
2022/02/19 06:58:10;;;;;;;4.60;0.73;;;;;;;5.86;43.78;99093.09;10413927;28;20046;-70
2022/02/19 07:03:19;;;;;;;2.15;0.60;;;;;;;5.64;44.20;99113.69;10456504;28;20055;-70
2022/02/19 07:08:23;;;;;;;2.03;0.60;;;;;;;5.86;44.74;99129.59;10456495;28;20098;-71
2022/02/19 07:13:24;;;;;;;3.55;0.70;;;;;;;5.98;44.07;99121.47;10473503;28;20063;-72
2022/02/19 07:18:26;;;;;;;2.90;0.73;;;;;;;6.02;44.83;99128.34;10472431;28;20055;-71
2022/02/19 07:23:36;;;;;;;4.00;1.00;;;;;;;6.02;44.73;99120.50;10453486;28;20049;-71
2022/02/19 07:28:40;;;;;;;3.45;0.63;;;;;;;5.67;46.06;99160.53;10452394;28;20108;-70
2022/02/19 07:33:43;;;;;;;7.32;0.85;;;;;;;5.73;45.88;99165.56;10469196;28;20041;-70
2022/02/19 07:38:49;;;;;;;2.95;0.70;;;;;;;5.88;46.11;99187.78;10436755;28;20049;-71
2022/02/19 07:43:51;;;;;;;3.13;0.77;;;;;;;6.20;45.57;99207.00;10467922;28;20044;-71
2022/02/19 07:58:18;;;;;;;4.70;0.73;;;;;;;6.29;45.36;99225.00;10436926;28;20045;-70
2022/02/19 08:00:22;;;;;;;3.17;0.70;;;;;;;6.26;46.00;99253.78;10467228;28;20040;-70
2022/02/19 08:05:29;;;;;;;2.30;0.70;;;;;;;6.21;46.50;99271.34;10449928;28;20065;-70
2022/02/19 08:10:32;;;;;;;4.63;1.02;;;;;;;6.19;45.83;99281.78;10447897;28;20296;-70
2022/02/19 08:15:35;;;;;;;2.90;0.90;;;;;;;6.21;45.91;99295.69;10467021;28;20041;-70
2022/02/19 08:20:39;;;;;;;3.63;0.88;;;;;;;6.12;45.49;99326.38;10467748;28;20452;-71
2022/02/19 08:25:41;;;;;;;3.63;1.05;;;;;;;6.06;45.23;99337.78;10466526;28;20096;-70
2022/02/19 08:30:45;;;;;;;2.97;0.90;;;;;;;6.10;44.66;99355.09;10465733;28;20045;-71
2022/02/19 08:35:47;;;;;;;2.30;0.88;;;;;;;6.14;44.39;99363.72;10464198;28;20037;-70
2022/02/19 08:40:48;;;;;;;3.40;1.08;;;;;;;6.19;44.33;99375.75;10467424;28;20072;-71
2022/02/19 08:45:50;;;;;;;2.17;0.80;;;;;;;6.11;44.33;99403.81;10466235;28;20517;-70
2022/02/19 08:50:52;;;;;;;4.90;1.45;;;;;;;6.11;44.38;99403.81;10466361;28;20041;-70
2022/02/19 08:55:57;;;;;;;2.83;0.75;;;;;;;6.14;43.96;99418.50;10446013;28;20065;-70
2022/02/19 09:00:58;;;;;;;1.67;0.63;;;;;;;6.14;42.87;99413.28;10447958;28;20049;-70
2022/02/19 09:06:00;;;;;;;2.05;1.08;;;;;;;6.19;43.19;99422.72;10429642;28;20041;-70
2022/02/19 09:11:02;;;;;;;2.13;0.90;;;;;;;6.24;42.41;99431.31;10462749;28;20124;-70
2022/02/19 09:16:03;;;;;;;2.35;0.68;;;;;;;6.33;42.79;99411.97;10461375;28;20041;-70
2022/02/19 09:21:05;;;;;;;3.28;1.90;;;;;;;6.30;42.62;99441.59;10465214;28;20049;-72
2022/02/19 09:26:07;;;;;;;3.42;1.40;;;;;;;6.35;43.05;99464.13;10471571;28;20041;-70
2022/02/19 09:31:08;;;;;;;2.13;0.80;;;;;;;6.46;42.03;99483.00;10470772;28;20057;-70
2022/02/19 09:36:11;;;;;;;4.28;1.02;;;;;;;6.47;42.60;99482.97;10470322;28;20045;-70
2022/02/19 09:41:13;;;;;;;2.60;0.60;;;;;;;6.47;42.61;99498.63;10469148;28;20040;-70
2022/02/19 09:46:15;;;;;;;2.67;0.73;;;;;;;6.57;41.82;99505.34;10469694;28;20401;-69
2022/02/19 09:51:16;;;;;;;1.75;0.65;;;;;;;6.62;41.85;99500.00;10466932;28;20041;-71
2022/02/19 09:56:18;;;;;;;5.55;0.80;;;;;;;6.63;41.37;99519.16;10442318;28;20056;-69
2022/02/19 10:01:22;;;;;;;1.75;0.73;;;;;;;6.64;42.80;99546.97;10448783;28;20463;-71
2022/02/19 10:06:28;;;;;;;2.40;0.77;;;;;;;6.91;42.47;99540.25;10441600;28;20049;-69
2022/02/19 10:11:32;;;;;;;5.18;0.60;;;;;;;6.88;41.12;99564.69;10449545;28;20045;-71
2022/02/19 10:16:36;;;;;;;2.70;0.70;;;;;;;6.90;40.99;99586.41;10443373;28;20060;-70
2022/02/19 10:21:39;;;;;;;2.45;0.65;;;;;;;6.96;41.19;99601.09;10427808;28;20045;-71
2022/02/19 10:26:42;;;;;;;1.48;0.40;;;;;;;7.10;40.99;99580.69;10394848;28;20384;-71
2022/02/19 10:31:56;;;;;;;3.08;0.70;;;;;;;7.02;40.43;99614.00;10419719;28;20055;-69
2022/02/19 10:37:02;;;;;;;3.30;0.90;;;;;;;6.96;41.25;99622.00;10450906;28;20049;-70
2022/02/19 10:42:10;;;;;;;3.08;0.80;;;;;;;6.98;40.48;99618.44;10436157;28;20118;-69
2022/02/19 10:47:30;;;;;;;2.63;0.70;;;;;;;7.21;41.43;99636.16;10435567;28;20041;-70
2022/02/19 10:52:42;;;;;;;2.10;0.60;;;;;;;6.95;41.13;99647.28;10434775;28;20041;-71
2022/02/19 10:57:52;;;;;;;4.32;1.00;;;;;;;6.83;41.96;99663.22;10451208;28;20033;-70
2022/02/19 11:02:59;;;;;;;3.30;0.70;;;;;;;6.94;41.24;99676.88;10435378;28;20053;-72
2022/02/19 11:08:03;;;;;;;2.47;0.77;;;;;;;6.82;41.94;99664.13;10419288;28;20042;-71
2022/02/19 11:13:05;;;;;;;2.42;0.80;;;;;;;6.85;40.71;99689.31;10405321;28;20057;-69
2022/02/19 11:18:07;;;;;;;2.53;0.90;;;;;;;6.72;41.63;99692.19;10424214;28;20033;-70
2022/02/19 11:23:11;;;;;;;2.88;0.77;;;;;;;6.62;41.94;99701.09;10462733;28;20045;-70
2022/02/19 11:28:14;;;;;;;1.75;0.50;;;;;;;6.67;41.95;99704.47;10462804;28;20041;-70
2022/02/19 11:33:17;;;;;;;3.72;0.82;;;;;;;6.71;41.84;99710.50;10444812;28;20095;-70
2022/02/19 11:38:31;;;;;;;2.60;0.70;;;;;;;6.78;41.31;99702.50;10444183;28;20076;-70
2022/02/19 11:43:44;;;;;;;4.18;1.25;;;;;;;6.97;42.23;99713.41;10461287;28;20045;-71
2022/02/19 11:48:47;;;;;;;3.25;1.25;;;;;;;6.89;42.12;99707.50;10444613;28;20587;-70
2022/02/19 11:54:06;;;;;;;4.15;0.93;;;;;;;6.92;42.28;99712.66;10462513;28;20132;-69
2022/02/19 11:59:12;;;;;;;3.00;1.10;;;;;;;6.98;42.88;99728.19;10461355;28;20037;-71
2022/02/19 12:04:16;;;;;;;5.72;0.90;;;;;;;6.87;41.64;99721.50;10445134;28;20041;-70
2022/02/19 12:09:19;;;;;;;2.05;0.70;;;;;;;6.87;42.08;99724.97;10461534;28;20482;-70
2022/02/19 12:14:39;;;;;;;3.20;1.35;;;;;;;6.75;42.70;99735.66;10463355;28;20053;-71
2022/02/19 12:19:59;;;;;;;3.00;1.13;;;;;;;6.72;41.77;99746.16;10462209;28;20045;-70
2022/02/19 12:25:04;;;;;;;3.30;0.65;;;;;;;6.65;41.87;99755.91;10461843;28;20053;-70
2022/02/19 12:30:20;;;;;;;3.10;1.00;;;;;;;6.50;43.60;99772.72;10410896;23;20052;-70
2022/02/19 12:35:42;;;;;;;2.88;0.70;;;;;;;6.72;42.23;99770.53;10421901;28;20053;-71
2022/02/19 12:40:46;;;;;;;4.55;1.50;;;;;;;6.60;42.37;99768.19;10364026;28;20458;-70
2022/02/19 12:45:49;;;;;;;3.85;1.00;;;;;;;6.56;42.89;99777.84;10380821;28;20054;-70
2022/02/19 12:50:55;;;;;;;2.28;0.75;;;;;;;6.79;40.99;99768.69;10382050;28;20106;-70
2022/02/19 12:55:58;;;;;;;3.78;0.90;;;;;;;6.89;41.13;99766.72;10384300;28;20056;-70
2022/02/19 13:01:00;;;;;;;4.03;1.02;;;;;;;7.06;40.52;99775.06;10373047;28;20396;-70
2022/02/19 13:06:02;;;;;;;3.95;0.77;;;;;;;7.02;40.30;99769.03;10371518;28;20538;-70
2022/02/19 13:11:07;;;;;;;1.77;0.60;;;;;;;6.70;41.06;99763.63;10389688;28;20129;-70
2022/02/19 13:16:11;;;;;;;2.28;0.60;;;;;;;6.52;41.40;99764.88;10389083;28;20049;-70
2022/02/19 13:21:15;;;;;;;3.38;0.80;;;;;;;6.72;40.68;99767.06;10369889;28;20046;-70
2022/02/19 13:26:24;;;;;;;1.92;1.00;;;;;;;7.13;39.41;99783.63;10388163;28;20041;-70
2022/02/19 13:31:28;;;;;;;2.22;0.70;;;;;;;7.13;40.26;99774.06;10387230;28;20053;-70
2022/02/19 13:36:30;;;;;;;4.20;0.63;;;;;;;7.03;40.22;99777.75;10386768;28;20046;-70
2022/02/19 13:41:51;;;;;;;4.93;0.95;;;;;;;7.26;40.67;99780.72;10370028;28;20058;-70
2022/02/19 13:46:53;;;;;;;2.97;0.90;;;;;;;7.27;40.41;99774.59;10388468;28;20042;-70
2022/02/19 13:51:55;;;;;;;3.15;0.70;;;;;;;7.09;40.02;99775.00;10394168;28;20572;-70
2022/02/19 13:57:25;;;;;;;3.58;0.85;;;;;;;6.94;40.83;99776.19;10389661;28;20042;-71
2022/02/19 14:02:30;;;;;;;2.95;1.00;;;;;;;6.82;41.45;99792.13;10385595;28;20448;-70
2022/02/19 14:07:49;;;;;;;1.83;0.80;;;;;;;6.81;41.80;99780.78;10385789;28;20046;-70
2022/02/19 14:12:52;;;;;;;1.75;0.60;;;;;;;6.70;40.60;99780.16;10367907;28;20140;-70
2022/02/19 14:18:04;;;;;;;3.83;0.85;;;;;;;6.67;41.40;99793.28;10367545;28;20046;-70
2022/02/19 14:23:32;;;;;;;2.25;0.75;;;;;;;6.63;41.82;99798.59;10383138;28;20064;-70
2022/02/19 14:28:34;;;;;;;4.07;0.90;;;;;;;6.74;41.61;99807.97;10382639;28;20054;-70
2022/02/19 14:33:36;;;;;;;4.25;0.60;;;;;;;6.83;41.86;99805.16;10366315;28;20146;-70
2022/02/19 14:38:37;;;;;;;3.72;1.15;;;;;;;6.93;41.63;99823.25;10349022;28;20046;-70
2022/02/19 14:43:39;;;;;;;5.57;0.90;;;;;;;6.92;41.76;99821.53;10349596;28;20090;-69
2022/02/19 14:48:42;;;;;;;3.70;1.10;;;;;;;6.94;41.24;99820.59;10382827;28;20096;-71
2022/02/19 14:53:44;;;;;;;2.38;1.00;;;;;;;6.94;40.74;99820.59;10366831;28;20077;-70
2022/02/19 14:58:46;;;;;;;4.20;0.77;;;;;;;6.92;39.95;99830.25;10381710;28;20068;-70
2022/02/19 15:03:48;;;;;;;22.27;8.52;;;;;;;6.99;40.27;99825.72;10381815;28;20084;-70
2022/02/19 15:08:50;;;;;;;5.10;1.00;;;;;;;7.04;40.00;99819.53;10383869;28;20041;-72
2022/02/19 15:13:52;;;;;;;2.92;1.08;;;;;;;6.99;40.41;99829.19;10368252;28;20433;-71
2022/02/19 15:18:54;;;;;;;2.20;0.65;;;;;;;6.93;40.94;99829.34;10380666;28;20491;-70
2022/02/19 15:23:56;;;;;;;3.70;1.00;;;;;;;6.75;41.46;99822.72;10364489;28;20042;-70
2022/02/19 15:28:58;;;;;;;5.50;0.85;;;;;;;6.73;41.81;99836.69;10381066;28;20042;-71
2022/02/19 15:34:00;;;;;;;3.90;1.13;;;;;;;6.75;41.15;99838.41;10366102;28;20045;-70
2022/02/19 15:39:03;;;;;;;4.22;0.98;;;;;;;6.63;42.27;99840.38;10382968;28;20038;-71
2022/02/19 15:44:05;;;;;;;2.30;0.80;;;;;;;6.58;42.11;99838.72;10382394;28;20046;-71
2022/02/19 15:49:08;;;;;;;4.95;1.08;;;;;;;6.36;43.03;99839.13;10383829;28;20034;-70
2022/02/19 15:54:10;;;;;;;5.30;0.70;;;;;;;6.35;43.15;99843.50;10386490;28;20060;-70
2022/02/19 15:59:15;;;;;;;3.10;1.05;;;;;;;6.25;43.60;99850.63;10385580;28;20042;-70
2022/02/19 16:04:17;;;;;;;3.08;0.95;;;;;;;6.23;44.76;99848.94;10384255;28;20066;-70
2022/02/19 16:09:19;;;;;;;3.55;0.98;;;;;;;6.09;44.99;99848.31;10383072;28;20042;-70
2022/02/19 16:14:21;;;;;;;3.45;1.35;;;;;;;6.09;44.39;99866.56;10382448;28;20041;-70
2022/02/19 16:19:28;;;;;;;4.53;1.27;;;;;;;5.98;45.23;99874.59;10384555;28;20042;-70
2022/02/19 16:24:29;;;;;;;3.40;1.00;;;;;;;5.89;45.19;99862.50;10363466;28;20072;-70
2022/02/19 16:29:33;;;;;;;2.90;1.10;;;;;;;5.89;45.36;99852.06;10379433;28;20103;-69
2022/02/19 16:34:36;;;;;;;2.85;1.05;;;;;;;5.71;45.54;99855.81;10379985;28;20045;-69
2022/02/19 16:39:37;;;;;;;2.88;1.00;;;;;;;5.66;45.49;99860.22;10382581;28;20030;-69
2022/02/19 16:44:39;;;;;;;5.70;1.58;;;;;;;5.71;45.37;99863.66;10364094;28;20057;-69
2022/02/19 16:49:42;;;;;;;5.88;1.60;;;;;;;5.57;46.27;99868.19;10380629;28;20445;-68
2022/02/19 16:54:44;;;;;;;4.70;1.45;;;;;;;5.53;46.62;99875.22;10380999;28;20042;-68
2022/02/19 16:59:46;;;;;;;4.47;1.42;;;;;;;5.31;46.46;99873.75;10383201;28;20125;-69
2022/02/19 17:04:48;;;;;;;5.47;1.80;;;;;;;5.24;46.92;99872.97;10381446;28;20061;-68
2022/02/19 17:09:50;;;;;;;4.85;1.77;;;;;;;5.25;46.56;99866.88;10380432;28;20042;-68
2022/02/19 17:14:52;;;;;;;4.28;1.13;;;;;;;5.21;47.09;99862.56;10381673;28;20487;-69
2022/02/19 17:19:54;;;;;;;4.65;1.40;;;;;;;5.28;46.58;99863.38;10382180;28;20042;-69
2022/02/19 17:24:57;;;;;;;4.05;1.70;;;;;;;5.39;46.44;99865.81;10385353;28;20045;-69
2022/02/19 17:29:58;;;;;;;3.72;1.25;;;;;;;5.16;47.38;99861.78;10378770;28;20046;-69
2022/02/19 17:35:03;;;;;;;2.35;1.10;;;;;;;5.07;47.38;99875.78;10361860;28;20400;-69
2022/02/19 17:40:09;;;;;;;5.45;1.52;;;;;;;4.84;47.56;99864.78;10382351;28;20045;-70
2022/02/19 17:45:11;;;;;;;3.40;1.67;;;;;;;4.75;48.39;99859.66;10391513;28;20377;-70
2022/02/19 17:50:17;;;;;;;4.43;1.75;;;;;;;5.01;47.12;99849.81;10390438;28;20151;-69
2022/02/19 17:55:21;;;;;;;4.47;1.45;;;;;;;5.11;47.11;99853.16;10389852;28;20046;-69
2022/02/19 18:00:23;;;;;;;3.85;1.90;;;;;;;5.11;46.79;99850.56;10388414;28;20057;-68
2022/02/19 18:05:26;;;;;;;5.07;1.40;;;;;;;4.89;47.77;99855.16;10393091;28;20080;-68
2022/02/19 18:10:28;;;;;;;3.53;1.27;;;;;;;4.92;47.13;99857.75;10387832;28;20510;-68
2022/02/19 18:15:30;;;;;;;3.85;1.30;;;;;;;5.01;46.38;99860.22;10387346;28;20108;-69
2022/02/19 18:20:32;;;;;;;3.92;1.20;;;;;;;4.98;46.19;99860.25;10370108;28;20042;-69
2022/02/19 18:25:34;;;;;;;3.90;1.33;;;;;;;5.03;46.16;99860.22;10372505;28;20053;-69
2022/02/19 18:30:36;;;;;;;4.63;1.10;;;;;;;5.00;45.73;99861.13;10397904;23;20122;-69
2022/02/19 18:35:38;;;;;;;4.05;1.50;;;;;;;4.94;45.69;99852.50;10346975;28;20406;-70
2022/02/19 18:40:40;;;;;;;2.80;1.05;;;;;;;5.03;45.32;99855.00;10404178;28;20045;-70
2022/02/19 18:45:42;;;;;;;3.03;1.30;;;;;;;5.06;45.42;99847.16;10421389;28;20050;-70
2022/02/19 18:50:44;;;;;;;4.45;1.20;;;;;;;5.07;45.54;99846.25;10421825;28;20052;-69
2022/02/19 18:55:46;;;;;;;4.22;1.10;;;;;;;4.84;46.67;99851.75;10402236;28;20140;-70
2022/02/19 19:00:48;;;;;;;4.90;1.10;;;;;;;4.98;46.33;99854.19;10421490;28;20203;-69
2022/02/19 19:05:50;;;;;;;4.20;0.90;;;;;;;4.93;46.74;99862.06;10402308;28;20136;-69
2022/02/19 19:10:52;;;;;;;3.80;1.15;;;;;;;5.13;46.28;99855.75;10421193;28;20060;-70
2022/02/19 19:15:54;;;;;;;3.60;1.00;;;;;;;5.16;46.07;99853.97;10421907;28;20042;-69
2022/02/19 19:20:56;;;;;;;3.20;1.40;;;;;;;4.96;47.14;99849.00;10401027;28;20530;-69
2022/02/19 19:25:57;;;;;;;2.95;1.00;;;;;;;4.99;47.17;99848.94;10420541;28;20465;-70
2022/02/19 19:30:59;;;;;;;2.15;1.20;;;;;;;4.99;47.57;99845.50;10420013;28;20052;-70
2022/02/19 19:36:01;;;;;;;4.50;1.20;;;;;;;4.98;47.40;99842.03;10402073;28;20055;-70
2022/02/19 19:41:03;;;;;;;3.03;1.20;;;;;;;4.97;47.82;99847.25;10402589;28;20038;-70
2022/02/19 19:46:05;;;;;;;5.35;1.05;;;;;;;4.92;48.02;99849.06;10418690;28;20042;-69
2022/02/19 19:51:07;;;;;;;6.22;1.25;;;;;;;4.92;47.99;99839.50;10418766;28;20053;-70
2022/02/19 19:56:08;;;;;;;4.10;1.30;;;;;;;4.92;47.92;99836.03;10418555;28;20076;-69
2022/02/19 20:01:10;;;;;;;2.40;1.00;;;;;;;4.96;47.76;99836.00;10400431;28;20049;-70
2022/02/19 20:06:13;;;;;;;3.85;1.10;;;;;;;4.81;48.22;99829.19;10416843;28;20053;-69
2022/02/19 20:11:14;;;;;;;2.78;1.05;;;;;;;4.87;47.93;99816.97;10417926;28;20530;-69
2022/02/19 20:16:16;;;;;;;4.13;1.25;;;;;;;4.77;48.42;99830.09;10399916;28;20118;-69
2022/02/19 20:21:17;;;;;;;2.33;1.13;;;;;;;4.73;48.41;99818.00;10416826;28;20046;-70
2022/02/19 20:26:19;;;;;;;4.00;1.25;;;;;;;4.68;48.81;99818.94;10416704;28;20056;-69
2022/02/19 20:31:21;;;;;;;7.10;0.95;;;;;;;4.70;48.76;99810.25;10416019;28;20088;-70
2022/02/19 20:36:22;;;;;;;2.63;0.82;;;;;;;4.84;48.48;99809.22;10399046;28;20049;-69
2022/02/19 20:41:24;;;;;;;2.50;1.00;;;;;;;4.75;48.95;99810.19;10416880;28;20045;-70
2022/02/19 20:46:26;;;;;;;2.50;1.05;;;;;;;4.64;49.27;99796.41;10398492;28;20045;-70
2022/02/19 20:51:27;;;;;;;3.97;1.30;;;;;;;4.63;49.07;99792.09;10417592;28;20406;-70
2022/02/19 20:56:30;;;;;;;4.35;1.00;;;;;;;4.76;48.83;99785.88;10416358;28;20045;-70
2022/02/19 21:01:32;;;;;;;5.70;1.70;;;;;;;4.96;48.06;99788.25;10416070;28;20045;-70
2022/02/19 21:06:34;;;;;;;4.18;1.25;;;;;;;4.77;48.86;99778.03;10415827;28;20414;-70
2022/02/19 21:11:35;;;;;;;3.53;1.20;;;;;;;4.68;49.46;99772.94;10415742;28;20041;-70
2022/02/19 21:16:37;;;;;;;7.93;1.50;;;;;;;4.81;49.52;99768.44;10417185;28;20041;-70
2022/02/19 21:21:39;;;;;;;3.95;1.33;;;;;;;4.70;49.46;99766.00;10423626;28;20046;-70
2022/02/19 21:26:40;;;;;;;3.45;1.23;;;;;;;4.81;49.46;99764.09;10404900;28;20049;-70
2022/02/19 21:31:42;;;;;;;3.58;1.00;;;;;;;4.52;50.54;99756.66;10423317;28;20080;-70
2022/02/19 21:36:43;;;;;;;4.18;1.17;;;;;;;4.63;50.09;99747.84;10422390;28;20049;-70
2022/02/19 21:41:45;;;;;;;4.05;1.40;;;;;;;4.47;50.34;99739.34;10422759;28;20079;-70
2022/02/19 21:46:46;;;;;;;4.20;1.50;;;;;;;4.47;50.52;99744.56;10422723;28;20049;-70
2022/02/19 21:51:48;;;;;;;4.88;1.77;;;;;;;4.54;49.99;99728.00;10404409;28;20088;-70
2022/02/19 21:56:50;;;;;;;3.67;1.45;;;;;;;4.50;50.42;99713.28;10422060;28;20053;-70
2022/02/19 22:01:51;;;;;;;3.97;1.10;;;;;;;4.58;50.28;99714.06;10404282;28;20037;-70
2022/02/19 22:06:53;;;;;;;5.13;1.17;;;;;;;4.46;50.79;99701.19;10421686;28;20084;-69
2022/02/19 22:11:54;;;;;;;5.18;1.20;;;;;;;4.49;51.10;99690.75;10403472;28;20103;-69
2022/02/19 22:16:56;;;;;;;3.47;1.17;;;;;;;4.39;51.75;99687.41;10421350;28;20510;-69
2022/02/19 22:21:59;;;;;;;3.45;1.13;;;;;;;4.67;50.66;99677.50;10421849;28;20042;-70
2022/02/19 22:27:02;;;;;;;5.47;1.48;;;;;;;4.84;50.32;99669.47;10420763;28;20056;-70
2022/02/19 22:32:05;;;;;;;3.92;1.38;;;;;;;4.84;50.37;99656.44;10403950;28;20093;-70
2022/02/19 22:37:07;;;;;;;4.28;1.20;;;;;;;4.92;49.88;99644.16;10403732;28;20072;-70
2022/02/19 22:42:22;;;;;;;4.03;1.30;;;;;;;4.93;49.86;99640.66;10421132;28;20052;-69
2022/02/19 22:47:24;;;;;;;4.15;1.20;;;;;;;4.85;49.99;99636.47;10419946;28;20041;-69
2022/02/19 22:52:26;;;;;;;5.63;1.10;;;;;;;5.18;49.06;99619.44;10419913;28;20060;-70
2022/02/19 22:57:27;;;;;;;4.03;1.20;;;;;;;5.10;49.29;99610.91;10419788;28;20388;-69
2022/02/19 23:02:29;;;;;;;4.78;1.33;;;;;;;5.24;48.75;99611.53;10420313;28;20045;-70
2022/02/19 23:07:31;;;;;;;3.75;0.70;;;;;;;5.32;48.47;99599.22;10418843;28;20509;-69
2022/02/19 23:12:32;;;;;;;3.75;0.90;;;;;;;5.44;48.40;99585.94;10402433;28;20064;-69
2022/02/19 23:17:34;;;;;;;3.63;0.70;;;;;;;5.40;48.34;99593.84;10419381;28;20472;-69
2022/02/19 23:22:36;;;;;;;3.50;1.10;;;;;;;5.67;47.77;99582.94;10400522;28;20049;-69
2022/02/19 23:27:37;;;;;;;2.25;0.70;;;;;;;5.73;47.79;99585.44;10418242;28;20484;-71
2022/02/19 23:32:39;;;;;;;3.65;0.80;;;;;;;5.80;47.65;99583.56;10400638;28;20069;-70
2022/02/19 23:37:41;;;;;;;3.20;0.63;;;;;;;5.96;47.44;99556.31;10418332;28;20049;-70
2022/02/19 23:42:43;;;;;;;4.70;1.45;;;;;;;5.90;47.39;99540.75;10417629;28;20041;-69
2022/02/19 23:47:44;;;;;;;2.17;1.15;;;;;;;6.01;47.25;99545.78;10401275;28;20109;-69
2022/02/19 23:52:46;;;;;;;4.57;0.98;;;;;;;6.10;48.17;99529.06;10417465;28;20115;-71
2022/02/19 23:57:49;;;;;;;2.47;0.70;;;;;;;6.00;48.79;99517.97;10399386;28;20057;-71
